createdAt,value
2018-03-04T00:01:43.994Z,70.80
2018-03-04T00:04:10.184Z,71.43
2018-03-04T00:06:37.135Z,65.70
2018-03-04T00:09:04.075Z,70.57
2018-03-04T00:11:31.008Z,74.70
2018-03-04T00:13:57.180Z,73.53
2018-03-04T00:16:23.371Z,68.53
2018-03-04T00:18:50.314Z,68.00
2018-03-04T00:21:17.178Z,66.50
2018-03-04T00:23:44.149Z,66.80
2018-03-04T00:26:10.334Z,67.37
2018-03-04T00:28:37.302Z,71.40
2018-03-04T00:31:03.446Z,66.57
2018-03-04T00:33:29.648Z,72.87
2018-03-04T00:35:56.521Z,77.50
2018-03-04T00:38:22.718Z,69.43
2018-03-04T00:40:49.643Z,70.93
2018-03-04T00:43:16.566Z,62.43
2018-03-04T00:45:42.716Z,65.10
2018-03-04T00:48:09.610Z,65.60
2018-03-04T00:50:35.745Z,65.73
2018-03-04T00:53:01.954Z,58.90
2018-03-04T00:55:28.159Z,69.17
2018-03-04T00:57:54.268Z,58.63
2018-03-04T01:00:21.254Z,67.33
2018-03-04T01:02:47.439Z,66.10
2018-03-04T01:05:13.603Z,74.10
2018-03-04T01:07:39.757Z,73.47
2018-03-04T01:10:05.932Z,62.97
2018-03-04T01:12:32.881Z,72.20
2018-03-04T01:14:59.827Z,73.10
2018-03-04T01:17:25.983Z,73.37
2018-03-04T01:19:52.174Z,68.70
2018-03-04T01:22:19.110Z,64.17
2018-03-04T01:24:46.083Z,64.77
2018-03-04T01:27:12.276Z,61.67
2018-03-04T01:29:39.172Z,67.97
2018-03-04T01:32:05.315Z,62.80
2018-03-04T01:34:31.461Z,66.17
2018-03-04T01:36:57.645Z,68.30
2018-03-04T01:39:23.858Z,66.23
2018-03-04T01:41:50.081Z,69.17
2018-03-04T01:44:16.244Z,62.60
2018-03-04T01:46:42.481Z,70.70
2018-03-04T01:49:08.670Z,67.20
2018-03-04T01:51:47.156Z,70.50
2018-03-04T01:54:13.299Z,69.13
2018-03-04T01:56:40.249Z,71.80
2018-03-04T01:59:07.130Z,77.77
2018-03-04T02:01:33.319Z,74.07
2018-03-04T02:03:59.557Z,73.93
2018-03-04T02:06:25.714Z,70.33
2018-03-04T02:08:51.952Z,72.73
2018-03-04T02:11:18.113Z,71.80
2018-03-04T02:13:44.321Z,73.37
2018-03-04T02:16:10.541Z,80.27
2018-03-04T02:18:36.674Z,82.77
2018-03-04T02:21:02.818Z,78.33
2018-03-04T02:23:29.012Z,81.30
2018-03-04T02:25:55.208Z,77.10
2018-03-04T02:28:21.426Z,84.07
2018-03-04T02:30:47.621Z,80.77
2018-03-04T02:33:13.847Z,82.83
2018-03-04T02:35:40.757Z,80.47
2018-03-04T02:38:06.888Z,80.63
2018-03-04T02:40:33.088Z,81.53
2018-03-04T02:42:59.290Z,84.10
2018-03-04T02:45:26.209Z,85.13
2018-03-04T02:47:52.339Z,84.00
2018-03-04T02:50:18.512Z,83.30
2018-03-04T02:52:44.744Z,87.63
2018-03-04T02:55:11.101Z,83.93
2018-03-04T02:57:37.266Z,87.70
2018-03-04T03:00:03.431Z,89.73
2018-03-04T03:02:29.598Z,87.77
2018-03-04T03:04:55.756Z,84.07
2018-03-04T03:07:22.707Z,91.00
2018-03-04T03:09:49.619Z,89.53
2018-03-04T03:12:16.508Z,91.60
2018-03-04T03:14:42.671Z,96.13
2018-03-04T03:17:08.820Z,92.73
2018-03-04T03:19:34.992Z,97.70
2018-03-04T03:22:01.157Z,95.93
2018-03-04T03:24:27.351Z,97.03
2018-03-04T03:26:53.513Z,101.93
2018-03-04T03:29:19.646Z,101.23
2018-03-04T03:31:45.847Z,96.73
2018-03-04T03:34:12.074Z,96.60
2018-03-04T03:36:38.287Z,96.13
2018-03-04T03:39:04.525Z,97.47
2018-03-04T03:41:30.688Z,94.60
2018-03-04T03:43:57.596Z,96.27
2018-03-04T03:46:23.742Z,109.50
2018-03-04T03:48:49.997Z,95.50
2018-03-04T03:51:16.892Z,97.37
2018-03-04T03:53:43.022Z,101.50
2018-03-04T03:56:09.207Z,103.87
2018-03-04T03:58:36.150Z,94.37
2018-03-04T04:01:03.084Z,95.10
2018-03-04T04:03:29.218Z,109.33
2018-03-04T04:05:55.372Z,101.20
2018-03-04T04:08:21.505Z,105.80
2018-03-04T04:10:47.639Z,96.73
2018-03-04T04:13:13.786Z,104.90
2018-03-04T04:15:39.968Z,100.83
2018-03-04T04:18:06.170Z,102.00
2018-03-04T04:20:33.095Z,98.90
2018-03-04T04:22:59.297Z,100.10
2018-03-04T04:25:25.458Z,90.77
2018-03-04T04:27:51.672Z,105.27
2018-03-04T04:30:17.871Z,103.70
2018-03-04T04:32:44.004Z,101.63
2018-03-04T04:35:10.189Z,105.43
2018-03-04T04:37:36.291Z,99.13
2018-03-04T04:40:02.488Z,101.67
2018-03-04T04:42:28.647Z,96.17
2018-03-04T04:44:54.752Z,104.53
2018-03-04T04:47:20.940Z,104.03
2018-03-04T04:49:47.118Z,103.50
2018-03-04T04:52:13.286Z,104.10
2018-03-04T04:54:40.223Z,95.87
2018-03-04T04:57:07.173Z,99.57
2018-03-04T04:59:34.103Z,107.13
2018-03-04T05:02:01.039Z,107.20
2018-03-04T05:04:27.266Z,99.97
2018-03-04T05:06:53.450Z,98.13
2018-03-04T05:09:19.578Z,97.43
2018-03-04T05:11:45.703Z,106.23
2018-03-04T05:14:11.853Z,95.33
2018-03-04T05:16:37.964Z,103.10
2018-03-04T05:19:04.095Z,104.07
2018-03-04T05:21:30.333Z,100.57
2018-03-04T05:23:56.488Z,110.40
2018-03-04T05:26:23.394Z,98.53
2018-03-04T05:28:49.546Z,101.07
2018-03-04T05:31:16.499Z,100.73
2018-03-04T05:33:42.632Z,93.90
2018-03-04T05:36:08.779Z,100.10
2018-03-04T05:38:35.734Z,102.93
2018-03-04T05:41:01.926Z,96.03
2018-03-04T05:43:28.881Z,103.03
2018-03-04T05:45:55.053Z,99.67
2018-03-04T05:48:21.260Z,96.60
2018-03-04T05:50:47.497Z,103.93
2018-03-04T05:53:13.695Z,106.30
2018-03-04T05:55:40.595Z,91.63
2018-03-04T05:58:06.797Z,101.70
2018-03-04T06:00:32.990Z,99.10
2018-03-04T06:02:59.148Z,106.43
2018-03-04T06:05:25.364Z,100.23
2018-03-04T06:07:52.430Z,97.70
2018-03-04T06:10:18.678Z,95.83
2018-03-04T06:12:44.798Z,107.90
2018-03-04T06:15:10.932Z,100.30
2018-03-04T06:17:37.072Z,105.03
2018-03-04T06:20:03.260Z,107.87
2018-03-04T06:22:29.419Z,113.43
2018-03-04T06:24:55.591Z,104.10
2018-03-04T06:27:22.511Z,106.70
2018-03-04T06:29:48.699Z,113.50
2018-03-04T06:32:14.861Z,107.33
2018-03-04T06:34:41.016Z,107.73
2018-03-04T06:37:07.957Z,102.40
2018-03-04T06:39:34.861Z,108.60
2018-03-04T06:42:01.059Z,105.10
2018-03-04T06:44:27.295Z,105.63
2018-03-04T06:46:53.508Z,105.60
2018-03-04T06:49:19.738Z,102.83
2018-03-04T06:51:45.847Z,109.70
2018-03-04T06:54:12.778Z,109.07
2018-03-04T06:56:39.779Z,105.90
2018-03-04T06:59:05.957Z,97.40
2018-03-04T07:01:32.914Z,108.27
2018-03-04T07:03:59.139Z,106.77
2018-03-04T07:06:25.340Z,109.07
2018-03-04T07:08:52.299Z,97.77
2018-03-04T07:11:19.226Z,105.43
2018-03-04T07:13:45.417Z,104.93
2018-03-04T07:16:11.611Z,113.27
2018-03-04T07:18:37.821Z,106.50
2018-03-04T07:21:03.936Z,109.53
2018-03-04T07:23:30.130Z,106.30
2018-03-04T07:25:56.257Z,104.03
2018-03-04T07:28:22.386Z,110.37
2018-03-04T07:30:48.566Z,109.63
2018-03-04T07:33:15.483Z,110.93
2018-03-04T07:35:42.406Z,114.30
2018-03-04T07:38:08.537Z,109.20
2018-03-04T07:40:34.734Z,113.90
2018-03-04T07:43:00.891Z,101.10
2018-03-04T07:45:27.109Z,103.73
2018-03-04T07:47:53.288Z,100.60
2018-03-04T07:50:20.158Z,119.53
2018-03-04T07:52:46.323Z,147.30
2018-03-04T07:55:12.546Z,177.10
2018-03-04T07:57:38.682Z,141.53
2018-03-04T08:00:04.934Z,130.00
2018-03-04T08:02:31.935Z,121.70
2018-03-04T08:04:58.065Z,115.90
2018-03-04T08:07:24.212Z,112.70
2018-03-04T08:09:50.418Z,120.33
2018-03-04T08:12:16.568Z,118.93
2018-03-04T08:14:42.771Z,110.60
2018-03-04T08:17:08.944Z,105.17
2018-03-04T08:19:35.894Z,108.37
2018-03-04T08:22:02.869Z,121.33
2018-03-04T08:24:36.220Z,108.10
2018-03-04T08:27:15.691Z,112.70
2018-03-04T08:29:41.926Z,113.20
2018-03-04T08:32:08.122Z,110.83
2018-03-04T08:34:35.094Z,121.77
2018-03-04T08:37:02.025Z,122.30
2018-03-04T08:39:28.202Z,127.93
2018-03-04T08:41:54.355Z,134.33
2018-03-04T08:44:21.269Z,124.03
2018-03-04T08:46:47.435Z,117.97
2018-03-04T08:49:13.569Z,120.10
2018-03-04T08:51:40.512Z,109.73
2018-03-04T08:54:07.420Z,116.60
2018-03-04T08:56:33.579Z,115.90
2018-03-04T08:59:00.543Z,108.57
2018-03-04T09:01:26.722Z,113.13
2018-03-04T09:03:52.910Z,111.00
2018-03-04T09:06:19.107Z,110.80
2018-03-04T09:08:46.086Z,115.87
2018-03-04T09:11:12.247Z,105.73
2018-03-04T09:13:38.441Z,106.10
2018-03-04T09:16:04.658Z,109.47
2018-03-04T09:18:30.807Z,106.67
2018-03-04T09:20:57.008Z,108.47
2018-03-04T09:23:23.907Z,100.73
2018-03-04T09:25:50.034Z,119.73
2018-03-04T09:28:16.181Z,105.30
2018-03-04T09:30:42.351Z,100.20
2018-03-04T09:33:08.511Z,107.97
2018-03-04T09:35:34.683Z,100.97
2018-03-04T09:38:01.569Z,106.17
2018-03-04T09:40:27.714Z,109.63
2018-03-04T09:42:54.634Z,93.83
2018-03-04T09:45:20.807Z,106.63
2018-03-04T09:47:47.027Z,93.90
2018-03-04T09:50:13.963Z,89.00
2018-03-04T09:52:40.893Z,89.63
2018-03-04T09:55:07.043Z,104.80
2018-03-04T09:57:33.201Z,105.07
2018-03-04T09:59:59.370Z,97.20
2018-03-04T10:02:25.529Z,103.43
2018-03-04T10:04:51.676Z,99.40
2018-03-04T10:07:18.619Z,82.33
2018-03-04T10:09:44.796Z,88.03
2018-03-04T10:12:10.927Z,93.43
2018-03-04T10:14:37.091Z,90.57
2018-03-04T10:17:04.019Z,102.30
2018-03-04T10:19:30.227Z,91.10
2018-03-04T10:21:56.421Z,103.57
2018-03-04T10:24:22.571Z,94.67
2018-03-04T10:26:48.758Z,95.80
2018-03-04T10:29:14.961Z,97.53
2018-03-04T10:31:41.857Z,95.20
2018-03-04T10:34:08.069Z,95.03
2018-03-04T10:36:34.175Z,89.77
2018-03-04T10:39:01.064Z,90.73
2018-03-04T10:41:27.225Z,93.93
2018-03-04T10:43:54.127Z,91.23
2018-03-04T10:46:20.264Z,83.70
2018-03-04T10:48:46.451Z,91.13
2018-03-04T10:51:12.672Z,85.30
2018-03-04T10:53:39.623Z,92.60
2018-03-04T10:56:05.798Z,88.53
2018-03-04T10:58:32.036Z,83.77
2018-03-04T11:01:05.237Z,88.50
2018-03-04T11:03:31.396Z,83.03
2018-03-04T11:05:58.370Z,81.00
2018-03-04T11:08:24.591Z,81.87
2018-03-04T11:10:50.743Z,83.77
2018-03-04T11:13:16.906Z,82.20
2018-03-04T11:15:43.787Z,83.97
2018-03-04T11:18:09.915Z,73.93
2018-03-04T11:20:36.106Z,81.37
2018-03-04T11:23:03.044Z,75.83
2018-03-04T11:25:29.928Z,90.93
2018-03-04T11:27:56.093Z,80.80
2018-03-04T11:30:22.979Z,76.17
2018-03-04T11:32:49.877Z,82.80
2018-03-04T11:35:16.004Z,75.20
2018-03-04T11:37:42.150Z,76.93
2018-03-04T11:40:08.322Z,82.40
2018-03-04T11:42:34.503Z,80.20
2018-03-04T11:45:00.632Z,74.73
2018-03-04T11:47:26.834Z,74.57
2018-03-04T11:49:52.964Z,78.63
2018-03-04T11:52:19.092Z,73.93
2018-03-04T11:54:45.284Z,75.60
2018-03-04T11:57:11.452Z,81.67
2018-03-04T11:59:37.588Z,66.40
2018-03-04T12:02:03.763Z,69.10
2018-03-04T12:04:29.945Z,72.60
2018-03-04T12:06:56.826Z,69.50
2018-03-04T12:09:23.029Z,71.87
2018-03-04T12:11:49.188Z,63.30
2018-03-04T12:14:15.336Z,66.93
2018-03-04T12:16:41.543Z,67.87
2018-03-04T12:19:07.710Z,68.57
2018-03-04T12:21:33.899Z,67.47
2018-03-04T12:24:00.108Z,66.70
2018-03-04T12:26:27.011Z,66.80
2018-03-04T12:28:53.249Z,58.77
2018-03-04T12:31:19.405Z,60.57
2018-03-04T12:33:45.603Z,62.20
2018-03-04T12:36:11.736Z,74.10
2018-03-04T12:38:38.593Z,61.13
2018-03-04T12:41:05.485Z,62.33
2018-03-04T12:43:31.647Z,58.53
2018-03-04T12:45:57.809Z,56.23
2018-03-04T12:48:23.991Z,54.53
2018-03-04T12:50:50.194Z,52.47
2018-03-04T12:53:16.360Z,53.03
2018-03-04T12:55:43.337Z,56.73
2018-03-04T12:58:09.503Z,53.07
2018-03-04T13:00:35.742Z,53.10
2018-03-04T13:03:01.917Z,51.40
2018-03-04T13:05:28.090Z,56.50
2018-03-04T13:07:54.236Z,45.20
2018-03-04T13:10:21.124Z,45.70
2018-03-04T13:12:47.281Z,53.37
2018-03-04T13:15:13.424Z,46.37
2018-03-04T13:17:39.562Z,44.77
2018-03-04T13:20:06.519Z,42.67
2018-03-04T13:22:33.452Z,42.13
2018-03-04T13:25:00.365Z,42.10
2018-03-04T13:27:26.554Z,38.90
2018-03-04T13:29:52.755Z,43.43
2018-03-04T13:32:19.672Z,44.70
2018-03-04T13:34:45.850Z,43.93
2018-03-04T13:37:12.064Z,44.07
2018-03-04T13:39:39.051Z,41.50
2018-03-04T13:42:05.237Z,39.80
2018-03-04T13:44:31.446Z,40.23
2018-03-04T13:46:57.618Z,37.03
2018-03-04T13:49:23.806Z,41.30
2018-03-04T13:51:50.708Z,43.93
2018-03-04T13:54:16.925Z,47.07
2018-03-04T13:56:43.102Z,43.33
2018-03-04T13:59:09.234Z,48.37
2018-03-04T14:01:35.458Z,44.90
2018-03-04T14:04:02.337Z,42.90
2018-03-04T14:06:28.507Z,44.00
2018-03-04T14:08:54.752Z,40.83
2018-03-04T14:11:21.648Z,46.20
2018-03-04T14:13:47.900Z,46.03
2018-03-04T14:16:14.064Z,47.77
2018-03-04T14:18:40.921Z,46.67
2018-03-04T14:21:07.903Z,43.60
2018-03-04T14:23:34.058Z,49.90
2018-03-04T14:26:00.282Z,40.80
2018-03-04T14:28:26.535Z,41.07
2018-03-04T14:30:53.517Z,46.80
2018-03-04T14:33:19.677Z,43.33
2018-03-04T14:35:45.845Z,45.40
2018-03-04T14:38:12.765Z,44.90
2018-03-04T14:40:38.945Z,45.37
2018-03-04T14:43:05.113Z,43.27
2018-03-04T14:45:31.297Z,42.20
2018-03-04T14:47:57.462Z,44.57
2018-03-04T14:50:30.850Z,45.83
2018-03-04T14:52:57.236Z,45.00
2018-03-04T14:55:23.536Z,43.07
2018-03-04T14:57:49.667Z,41.20
2018-03-04T15:00:15.848Z,40.00
2018-03-04T15:02:42.078Z,46.83
2018-03-04T15:05:08.243Z,39.50
2018-03-04T15:07:34.405Z,47.10
2018-03-04T15:10:00.567Z,41.43
2018-03-04T15:12:26.826Z,43.53
2018-03-04T15:14:53.043Z,44.20
2018-03-04T15:17:19.278Z,43.00
2018-03-04T15:19:45.460Z,44.90
2018-03-04T15:22:11.599Z,46.90
2018-03-04T15:24:37.839Z,43.30
2018-03-04T15:27:04.024Z,60.40
2018-03-04T15:29:30.201Z,50.10
2018-03-04T15:31:56.395Z,58.50
2018-03-04T15:34:22.549Z,51.27
2018-03-04T15:36:48.753Z,53.27
2018-03-04T15:39:14.915Z,53.03
2018-03-04T15:41:41.105Z,44.47
2018-03-04T15:44:07.245Z,53.53
2018-03-04T15:46:33.400Z,62.27
2018-03-04T15:48:59.630Z,52.90
2018-03-04T15:51:25.831Z,53.40
2018-03-04T15:53:52.034Z,62.73
2018-03-04T15:56:18.200Z,61.00
2018-03-04T15:58:44.336Z,51.03
2018-03-04T16:01:10.508Z,63.90
2018-03-04T16:03:36.671Z,53.93
2018-03-04T16:06:02.935Z,63.30
2018-03-04T16:08:29.919Z,63.60
2018-03-04T16:10:56.053Z,52.73
2018-03-04T16:13:22.324Z,54.30
2018-03-04T16:15:48.551Z,47.60
2018-03-04T16:18:15.452Z,56.10
2018-03-04T16:20:41.662Z,66.87
2018-03-04T16:23:07.914Z,53.90
2018-03-04T16:25:34.111Z,52.70
2018-03-04T16:28:00.981Z,52.97
2018-03-04T16:30:27.149Z,50.63
2018-03-04T16:32:53.305Z,47.63
2018-03-04T16:35:20.236Z,52.00
2018-03-04T16:37:47.144Z,53.00
2018-03-04T16:40:13.338Z,60.63
2018-03-04T16:42:39.464Z,55.13
2018-03-04T16:45:05.930Z,53.40
2018-03-04T16:47:32.915Z,55.40
2018-03-04T16:49:59.900Z,57.87
2018-03-04T16:52:26.255Z,59.63
2018-03-04T16:54:52.410Z,65.40
2018-03-04T16:57:18.787Z,69.80
2018-03-04T16:59:44.974Z,69.30
2018-03-04T17:02:11.882Z,62.23
2018-03-04T17:04:38.168Z,68.53
2018-03-04T17:07:04.300Z,63.47
2018-03-04T17:09:30.506Z,68.50
2018-03-04T17:11:57.416Z,68.13
2018-03-04T17:14:23.719Z,78.57
2018-03-04T17:16:49.924Z,66.57
2018-03-04T17:19:16.871Z,68.43
2018-03-04T17:21:43.127Z,77.57
2018-03-04T17:24:09.322Z,75.00
2018-03-04T17:26:36.293Z,77.83
2018-03-04T17:29:02.489Z,72.30
2018-03-04T17:31:29.502Z,72.93
2018-03-04T17:33:56.567Z,77.37
2018-03-04T17:36:22.725Z,76.10
2018-03-04T17:38:48.888Z,77.83
2018-03-04T17:41:15.175Z,78.93
2018-03-04T17:43:41.407Z,72.67
2018-03-04T17:46:07.585Z,82.83
2018-03-04T17:48:33.764Z,82.97
2018-03-04T17:50:59.945Z,74.57
2018-03-04T17:53:26.109Z,70.50
2018-03-04T17:55:52.328Z,78.00
2018-03-04T17:58:19.197Z,73.17
2018-03-04T18:00:45.387Z,70.40
2018-03-04T18:03:11.531Z,78.80
2018-03-04T18:05:38.483Z,76.33
2018-03-04T18:08:04.710Z,71.27
2018-03-04T18:10:30.897Z,77.37
2018-03-04T18:12:57.104Z,71.37
2018-03-04T18:15:23.276Z,81.10
2018-03-04T18:17:50.172Z,74.53
2018-03-04T18:20:16.305Z,70.00
2018-03-04T18:22:42.458Z,78.10
2018-03-04T18:25:09.408Z,88.80
2018-03-04T18:27:35.540Z,80.90
2018-03-04T18:30:01.751Z,81.97
2018-03-04T18:32:27.922Z,105.40
2018-03-04T18:34:54.187Z,97.00
2018-03-04T18:37:20.384Z,86.60
2018-03-04T18:39:46.626Z,103.43
2018-03-04T18:42:13.798Z,98.70
2018-03-04T18:44:39.998Z,86.70
2018-03-04T18:47:06.217Z,85.20
2018-03-04T18:49:32.414Z,83.57
2018-03-04T18:51:59.648Z,84.63
2018-03-04T18:54:26.595Z,85.10
2018-03-04T18:56:53.544Z,79.57
2018-03-04T18:59:19.732Z,94.00
2018-03-04T19:01:45.885Z,90.37
2018-03-04T19:04:12.145Z,86.57
2018-03-04T19:06:39.156Z,79.50
2018-03-04T19:09:05.389Z,88.33
2018-03-04T19:11:31.625Z,80.37
2018-03-04T19:13:59.268Z,79.97
2018-03-04T19:16:25.443Z,76.47
2018-03-04T19:18:52.318Z,95.00
2018-03-04T19:21:18.749Z,93.07
2018-03-04T19:23:44.933Z,89.60
2018-03-04T19:26:11.134Z,78.23
2018-03-04T19:28:37.317Z,74.13
2018-03-04T19:31:03.559Z,86.30
2018-03-04T19:33:29.754Z,126.97
2018-03-04T19:35:56.712Z,88.83
2018-03-04T19:38:22.930Z,86.03
2018-03-04T19:40:49.847Z,73.77
2018-03-04T19:43:16.080Z,70.93
2018-03-04T19:45:42.261Z,73.63
2018-03-04T19:48:08.720Z,69.37
2018-03-04T19:50:34.946Z,70.60
2018-03-04T19:53:01.124Z,75.70
2018-03-04T19:55:28.152Z,79.77
2018-03-04T19:57:54.355Z,77.63
2018-03-04T20:00:20.563Z,69.23
2018-03-04T20:02:46.715Z,76.00
2018-03-04T20:05:13.712Z,78.63
2018-03-04T20:07:39.864Z,70.97
2018-03-04T20:10:05.988Z,76.10
2018-03-04T20:12:32.180Z,73.70
2018-03-04T20:15:00.156Z,73.37
2018-03-04T20:17:26.348Z,73.53
2018-03-04T20:19:53.246Z,74.87
2018-03-04T20:22:19.420Z,77.17
2018-03-04T20:24:46.415Z,74.03
2018-03-04T20:27:12.580Z,76.07
2018-03-04T20:29:38.813Z,73.33
2018-03-04T20:32:05.004Z,77.00
2018-03-04T20:34:31.300Z,78.00
2018-03-04T20:36:58.249Z,78.43
2018-03-04T20:39:24.497Z,77.60
2018-03-04T20:41:51.608Z,76.37
2018-03-04T20:44:17.780Z,71.47
2018-03-04T20:46:44.044Z,72.80
2018-03-04T20:49:11.766Z,76.60
2018-03-04T20:51:37.974Z,90.70
2018-03-04T20:54:04.882Z,105.93
2018-03-04T20:56:31.115Z,81.77
2018-03-04T20:58:57.981Z,72.73
2018-03-04T21:01:24.214Z,77.77
2018-03-04T21:03:51.115Z,79.17
2018-03-04T21:06:17.403Z,77.00
2018-03-04T21:08:43.625Z,74.87
2018-03-04T21:11:10.625Z,76.50
2018-03-04T21:13:36.951Z,85.50
2018-03-04T21:16:03.157Z,115.30
2018-03-04T21:18:29.350Z,109.53
2018-03-04T21:20:57.112Z,111.97
2018-03-04T21:23:24.060Z,102.90
2018-03-04T21:25:51.042Z,88.20
2018-03-04T21:28:17.298Z,91.50
2018-03-04T21:30:43.524Z,95.37
2018-03-04T21:33:09.856Z,75.70
2018-03-04T21:35:37.055Z,73.33
2018-03-04T21:38:04.017Z,81.03
2018-03-04T21:40:30.166Z,79.70
2018-03-04T21:42:56.514Z,75.67
2018-03-04T21:45:22.779Z,67.10
2018-03-04T21:47:49.693Z,75.53
2018-03-04T21:50:15.894Z,81.37
2018-03-04T21:52:42.127Z,78.27
2018-03-04T21:55:08.336Z,76.40
2018-03-04T21:57:34.498Z,79.13
2018-03-04T22:00:00.687Z,76.20
2018-03-04T22:02:26.864Z,75.87
2018-03-04T22:04:53.743Z,77.37
2018-03-04T22:07:20.606Z,75.80
2018-03-04T22:09:46.813Z,72.47
2018-03-04T22:12:13.062Z,74.00
2018-03-04T22:14:39.256Z,80.20
2018-03-04T22:17:06.215Z,80.90
2018-03-04T22:19:32.469Z,74.43
2018-03-04T22:21:58.604Z,77.77
2018-03-04T22:24:24.798Z,87.03
2018-03-04T22:26:51.011Z,75.90
2018-03-04T22:29:17.925Z,78.93
2018-03-04T22:31:44.118Z,77.73
2018-03-04T22:34:10.272Z,73.00
2018-03-04T22:36:36.450Z,82.77
2018-03-04T22:39:02.686Z,81.23
2018-03-04T22:41:28.838Z,81.87
2018-03-04T22:43:55.033Z,74.87
2018-03-04T22:46:21.230Z,70.90
2018-03-04T22:48:47.414Z,81.80
2018-03-04T22:51:13.583Z,74.70
2018-03-04T22:53:39.770Z,79.07
2018-03-04T22:56:05.933Z,83.40
2018-03-04T22:58:32.831Z,71.43
2018-03-04T23:00:59.051Z,76.73
2018-03-04T23:03:25.222Z,71.63
2018-03-04T23:05:51.378Z,76.00
2018-03-04T23:08:17.528Z,77.80
2018-03-04T23:10:43.705Z,67.50
2018-03-04T23:13:10.617Z,63.07
2018-03-04T23:15:36.744Z,71.00
2018-03-04T23:18:02.989Z,77.83
2018-03-04T23:20:29.143Z,82.23
2018-03-04T23:22:56.037Z,70.33
2018-03-04T23:25:22.184Z,81.70
2018-03-04T23:27:48.435Z,74.60
2018-03-04T23:30:15.362Z,72.10
2018-03-04T23:32:41.563Z,71.00
2018-03-04T23:35:07.766Z,76.20
2018-03-04T23:37:34.700Z,79.07
2018-03-04T23:40:01.656Z,83.57
2018-03-04T23:42:28.598Z,69.57
2018-03-04T23:44:55.542Z,70.67
2018-03-04T23:47:22.433Z,72.60
2018-03-04T23:49:48.664Z,76.00
2018-03-04T23:52:14.818Z,72.10
2018-03-04T23:54:40.936Z,78.43
2018-03-04T23:57:07.112Z,75.03
2018-03-04T23:59:33.295Z,74.70
